PWSweather.com
Personal Weather Stations
Station Observations
IFIFE35
InverkeithingGB

InverkeithingGB

Lat: 56.0317028, Lon: -3.4039751999999908

Elevation: 233

Station Type: DAVIS VANTAGE VUE

Latest ConditionsUpdated 3:25:00 AM GMT Friday, Apr 19, 2019
Currently Today's Max Today's Min Today's Average
Temperature 43.9°F6.6°C 44.6°F7.0°C 43.4°F6.3°C 43.9°F6.6°C
Dew Point 42.3°F5.7°C 43.0°F6.1°C 41.5°F5.3°C 42.1°F5.6°C
Winds Calm Calm 2.0 mph -3.2 kmh - - 0.6 mph 1.0 kmh
Wind Gusts 3.0 mph4.8 kmh 6.0 mph9.7 kmh - -
Humidity 94% 94% 93% 94%
Pressure 30.17 in1021.7 mb 30.17 in1021.7 mb 30.14 in1020.7 mb -
Hour Temp Dew Point Humidity Winds Wind Gusts Pressure Precip Precip Rate Daily Precip Total
03:25 AM 43.9°F6.6°C 42.3°F5.7°C 94% Calm Calm 3.0 mph4.8 kmh 30.17 in1021.7 mb 0.00 in0.0 mm 0.00 in0.0 mm 0.00 in0.0 mm
03:20 AM 43.8°F6.6°C 42.2°F5.7°C 94% Calm Calm 2.0 mph3.2 kmh 30.16 in1021.3 mb 0.00 in0.0 mm 0.00 in0.0 mm 0.00 in0.0 mm
03:15 AM 43.8°F6.6°C 42.2°F5.7°C 94% Calm Calm 2.0 mph3.2 kmh 30.16 in1021.3 mb 0.00 in0.0 mm 0.00 in0.0 mm 0.00 in0.0 mm
03:10 AM 43.9°F6.6°C 42.3°F5.7°C 94% Calm Calm 2.0 mph3.2 kmh 30.16 in1021.3 mb 0.00 in0.0 mm 0.00 in0.0 mm 0.00 in0.0 mm
03:05 AM 43.9°F6.6°C 42.3°F5.7°C 94% 1.0 mph NW1.6 kmh NW 4.0 mph6.4 kmh 30.16 in1021.3 mb 0.00 in0.0 mm 0.00 in0.0 mm 0.00 in0.0 mm
03:00 AM 43.9°F6.6°C 42.3°F5.7°C 94% 1.0 mph NW1.6 kmh NW 4.0 mph6.4 kmh 30.16 in1021.3 mb 0.00 in0.0 mm 0.00 in0.0 mm 0.00 in0.0 mm
02:55 AM 43.8°F6.6°C 42.2°F5.7°C 94% Calm Calm 3.0 mph4.8 kmh 30.16 in1021.3 mb 0.00 in0.0 mm 0.00 in0.0 mm 0.00 in0.0 mm
02:50 AM 43.8°F6.6°C 42.2°F5.7°C 94% Calm Calm 2.0 mph3.2 kmh 30.16 in1021.3 mb 0.00 in0.0 mm 0.00 in0.0 mm 0.00 in0.0 mm
02:45 AM 43.7°F6.5°C 42.1°F5.6°C 94% 1.0 mph NW1.6 kmh NW 3.0 mph4.8 kmh 30.16 in1021.3 mb 0.00 in0.0 mm 0.00 in0.0 mm 0.00 in0.0 mm
02:40 AM 43.7°F6.5°C 42.1°F5.6°C 94% 1.0 mph NNW1.6 kmh NNW 3.0 mph4.8 kmh 30.16 in1021.3 mb 0.00 in0.0 mm 0.00 in0.0 mm 0.00 in0.0 mm
02:35 AM 43.5°F6.4°C 41.9°F5.5°C 94% 1.0 mph NW1.6 kmh NW 3.0 mph4.8 kmh 30.15 in1021.0 mb 0.00 in0.0 mm 0.00 in0.0 mm 0.00 in0.0 mm
02:30 AM 43.5°F6.4°C 41.9°F5.5°C 94% 1.0 mph NW1.6 kmh NW 2.0 mph3.2 kmh 30.16 in1021.3 mb 0.00 in0.0 mm 0.00 in0.0 mm 0.00 in0.0 mm
02:25 AM 43.4°F6.3°C 41.8°F5.4°C 94% 1.0 mph NW1.6 kmh NW 2.0 mph3.2 kmh 30.15 in1021.0 mb 0.00 in0.0 mm 0.00 in0.0 mm 0.00 in0.0 mm
02:20 AM 43.5°F6.4°C 41.9°F5.5°C 94% 1.0 mph NW1.6 kmh NW 2.0 mph3.2 kmh 30.16 in1021.3 mb 0.00 in0.0 mm 0.00 in0.0 mm 0.00 in0.0 mm
02:15 AM 43.5°F6.4°C 41.9°F5.5°C 94% 1.0 mph NW1.6 kmh NW 4.0 mph6.4 kmh 30.15 in1021.0 mb 0.00 in0.0 mm 0.00 in0.0 mm 0.00 in0.0 mm
02:10 AM 43.4°F6.3°C 41.5°F5.3°C 93% Calm Calm 4.0 mph6.4 kmh 30.15 in1021.0 mb 0.00 in0.0 mm 0.00 in0.0 mm 0.00 in0.0 mm
02:05 AM 43.4°F6.3°C 41.5°F5.3°C 93% Calm Calm 2.0 mph3.2 kmh 30.15 in1021.0 mb 0.00 in0.0 mm 0.00 in0.0 mm 0.00 in0.0 mm
02:00 AM 43.4°F6.3°C 41.5°F5.3°C 93% Calm Calm 1.0 mph1.6 kmh 30.16 in1021.3 mb 0.00 in0.0 mm 0.00 in0.0 mm 0.00 in0.0 mm
01:55 AM 43.5°F6.4°C 41.6°F5.3°C 93% Calm Calm 1.0 mph1.6 kmh 30.16 in1021.3 mb 0.00 in0.0 mm 0.00 in0.0 mm 0.00 in0.0 mm
01:50 AM 43.7°F6.5°C 41.8°F5.4°C 93% Calm Calm 1.0 mph1.6 kmh 30.16 in1021.3 mb 0.00 in0.0 mm 0.00 in0.0 mm 0.00 in0.0 mm
01:45 AM 43.8°F6.6°C 41.9°F5.5°C 93% Calm Calm 2.0 mph3.2 kmh 30.16 in1021.3 mb 0.00 in0.0 mm 0.00 in0.0 mm 0.00 in0.0 mm
01:40 AM 43.9°F6.6°C 42.0°F5.6°C 93% Calm Calm 2.0 mph3.2 kmh 30.15 in1021.0 mb 0.00 in0.0 mm 0.00 in0.0 mm 0.00 in0.0 mm
01:35 AM 43.9°F6.6°C 42.0°F5.6°C 93% Calm Calm 2.0 mph3.2 kmh 30.15 in1021.0 mb 0.00 in0.0 mm 0.00 in0.0 mm 0.00 in0.0 mm
01:30 AM 44.1°F6.7°C 42.2°F5.7°C 93% Calm Calm 3.0 mph4.8 kmh 30.15 in1021.0 mb 0.00 in0.0 mm 0.00 in0.0 mm 0.00 in0.0 mm
01:25 AM 44.3°F6.8°C 42.4°F5.8°C 93% Calm Calm 3.0 mph4.8 kmh 30.15 in1021.0 mb 0.00 in0.0 mm 0.00 in0.0 mm 0.00 in0.0 mm
01:20 AM 44.6°F7.0°C 42.7°F5.9°C 93% Calm Calm 2.0 mph3.2 kmh 30.15 in1021.0 mb 0.00 in0.0 mm 0.00 in0.0 mm 0.00 in0.0 mm
01:15 AM 44.6°F7.0°C 43.0°F6.1°C 94% 1.0 mph NW1.6 kmh NW 4.0 mph6.4 kmh 30.15 in1021.0 mb 0.00 in0.0 mm 0.00 in0.0 mm 0.00 in0.0 mm
01:10 AM 44.4°F6.9°C 42.8°F6.0°C 94% 1.0 mph NW1.6 kmh NW 4.0 mph6.4 kmh 30.15 in1021.0 mb 0.00 in0.0 mm 0.00 in0.0 mm 0.00 in0.0 mm
01:05 AM 44.1°F6.7°C 42.5°F5.8°C 94% 1.0 mph NW1.6 kmh NW 3.0 mph4.8 kmh 30.15 in1021.0 mb 0.00 in0.0 mm 0.00 in0.0 mm 0.00 in0.0 mm
01:00 AM 44.0°F6.7°C 42.4°F5.8°C 94% 1.0 mph N1.6 kmh N 4.0 mph6.4 kmh 30.14 in1020.7 mb 0.00 in0.0 mm 0.00 in0.0 mm 0.00 in0.0 mm
12:55 AM 43.8°F6.6°C 42.2°F5.7°C 94% 1.0 mph N1.6 kmh N 4.0 mph6.4 kmh 30.15 in1021.0 mb 0.00 in0.0 mm 0.00 in0.0 mm 0.00 in0.0 mm
12:50 AM 43.5°F6.4°C 41.6°F5.3°C 93% Calm Calm 3.0 mph4.8 kmh 30.15 in1021.0 mb 0.00 in0.0 mm 0.00 in0.0 mm 0.00 in0.0 mm
12:45 AM 43.7°F6.5°C 41.8°F5.4°C 93% Calm Calm 1.0 mph1.6 kmh 30.16 in1021.3 mb 0.00 in0.0 mm 0.00 in0.0 mm 0.00 in0.0 mm
12:40 AM 43.9°F6.6°C 42.0°F5.6°C 93% Calm Calm 2.0 mph3.2 kmh 30.16 in1021.3 mb 0.00 in0.0 mm 0.00 in0.0 mm 0.00 in0.0 mm
12:35 AM 44.1°F6.7°C 42.5°F5.8°C 94% 1.0 mph NW1.6 kmh NW 4.0 mph6.4 kmh 30.15 in1021.0 mb 0.00 in0.0 mm 0.00 in0.0 mm 0.00 in0.0 mm
12:30 AM 44.1°F6.7°C 42.2°F5.7°C 93% 1.0 mph NW1.6 kmh NW 4.0 mph6.4 kmh 30.15 in1021.0 mb 0.00 in0.0 mm 0.00 in0.0 mm 0.00 in0.0 mm
12:25 AM 44.1°F6.7°C 42.2°F5.7°C 93% 1.0 mph NNW1.6 kmh NNW 4.0 mph6.4 kmh 30.15 in1021.0 mb 0.00 in0.0 mm 0.00 in0.0 mm 0.00 in0.0 mm
12:20 AM 44.2°F6.8°C 42.3°F5.7°C 93% 1.0 mph NNW1.6 kmh NNW 5.0 mph8.0 kmh 30.16 in1021.3 mb 0.00 in0.0 mm 0.00 in0.0 mm 0.00 in0.0 mm
12:15 AM 44.3°F6.8°C 42.4°F5.8°C 93% 2.0 mph NNW3.2 kmh NNW 5.0 mph8.0 kmh 30.15 in1021.0 mb 0.00 in0.0 mm 0.00 in0.0 mm 0.00 in0.0 mm
12:10 AM 44.4°F6.9°C 42.5°F5.8°C 93% 1.0 mph NNW1.6 kmh NNW 5.0 mph8.0 kmh 30.16 in1021.3 mb 0.00 in0.0 mm 0.00 in0.0 mm 0.00 in0.0 mm
12:05 AM 44.4°F6.9°C 42.5°F5.8°C 93% 1.0 mph NW1.6 kmh NW 4.0 mph6.4 kmh 30.16 in1021.3 mb 0.00 in0.0 mm 0.00 in0.0 mm 0.00 in0.0 mm
12:00 AM 44.5°F6.9°C 42.6°F5.9°C 93% 2.0 mph NW3.2 kmh NW 6.0 mph9.7 kmh 30.16 in1021.3 mb 0.00 in0.0 mm 0.00 in0.0 mm 0.00 in0.0 mm